Time;durP1;ratioP1;P1;durP2;ratioP2;P2;SDS_P1;SDS_P2;PMS_P1;PMS_P2;Temp;Humidity;BMP_temperature;BMP_pressure;BME280_temperature;BME280_humidity;BME280_pressure;Samples;Min_cycle;Max_cycle;Signal;HPM_P1;HPM_P2
2024/01/02 00:02:08;;;;;;;17.20;11.13;;;;;;;9.75;100.00;92791.44;5048430;28;20531;-76
2024/01/02 00:04:35;;;;;;;18.60;11.93;;;;;;;9.79;100.00;92791.78;5047717;28;20048;-76
2024/01/02 00:07:02;;;;;;;15.02;11.30;;;;;;;9.80;100.00;92783.09;5056232;28;20048;-76
2024/01/02 00:09:29;;;;;;;16.90;11.93;;;;;;;9.83;100.00;92789.59;5049642;28;20071;-76
2024/01/02 00:11:56;;;;;;;14.85;10.38;;;;;;;9.75;100.00;92767.56;5050085;28;20041;-76
2024/01/02 00:14:23;;;;;;;14.23;9.68;;;;;;;9.66;100.00;92773.97;5049973;28;20052;-76
2024/01/02 00:16:51;;;;;;;12.82;9.15;;;;;;;9.73;100.00;92782.41;5049217;28;20568;-76
2024/01/02 00:19:18;;;;;;;13.52;10.02;;;;;;;9.68;100.00;92784.81;5049734;28;20127;-76
2024/01/02 00:21:46;;;;;;;12.68;9.52;;;;;;;9.63;100.00;92788.81;5051882;28;20045;-76
2024/01/02 00:24:12;;;;;;;11.82;8.82;;;;;;;9.60;100.00;92791.81;5046579;28;20053;-76
2024/01/02 00:26:41;;;;;;;11.88;8.63;;;;;;;9.62;100.00;92791.56;5052107;28;20052;-76
2024/01/02 00:29:08;;;;;;;11.60;7.65;;;;;;;9.57;100.00;92784.53;5049808;28;20057;-76
2024/01/02 00:31:35;;;;;;;11.77;8.70;;;;;;;9.59;100.00;92794.59;5051868;28;20040;-76
2024/01/02 00:34:03;;;;;;;9.65;7.22;;;;;;;9.49;100.00;92782.22;5058289;28;20056;-77
2024/01/02 00:36:30;;;;;;;8.63;6.07;;;;;;;9.56;100.00;92795.00;5052637;28;20095;-76
2024/01/02 00:38:57;;;;;;;9.35;6.68;;;;;;;9.47;100.00;92792.72;5051633;28;20048;-76
2024/01/02 00:41:24;;;;;;;8.60;6.03;;;;;;;9.33;100.00;92779.25;5054345;28;20051;-76
2024/01/02 00:43:51;;;;;;;9.20;5.82;;;;;;;9.31;100.00;92776.09;5059635;28;20053;-76
2024/01/02 00:46:18;;;;;;;9.93;6.70;;;;;;;9.41;100.00;92788.44;5058488;28;20499;-76
2024/01/02 00:48:45;;;;;;;11.23;7.55;;;;;;;9.39;100.00;92780.16;5056510;28;20049;-75
2024/01/02 00:51:14;;;;;;;10.18;6.45;;;;;;;9.51;100.00;92776.91;5055200;28;20102;-75
2024/01/02 00:53:41;;;;;;;10.18;6.30;;;;;;;9.45;100.00;92784.44;5061473;28;20422;-75
2024/01/02 00:56:08;;;;;;;12.00;7.40;;;;;;;9.51;100.00;92782.03;5053437;28;20354;-76
2024/01/02 00:58:35;;;;;;;9.68;5.47;;;;;;;9.53;100.00;92768.00;5062002;28;20054;-76
2024/01/02 01:01:02;;;;;;;8.15;5.50;;;;;;;9.57;100.00;92773.47;5059631;28;20070;-76
2024/01/02 01:03:29;;;;;;;6.53;4.85;;;;;;;9.58;100.00;92773.28;5060286;28;20398;-76
2024/01/02 01:05:56;;;;;;;8.90;5.30;;;;;;;9.65;100.00;92775.78;5056284;28;20059;-76
2024/01/02 01:08:25;;;;;;;13.50;7.22;;;;;;;9.63;100.00;92770.09;5053888;28;20410;-76
2024/01/02 01:10:52;;;;;;;12.35;6.47;;;;;;;9.63;100.00;92775.22;5056213;28;20049;-76
2024/01/02 01:13:19;;;;;;;8.32;5.55;;;;;;;9.63;100.00;92775.22;5053488;28;20106;-76
2024/01/02 01:15:46;;;;;;;8.88;5.72;;;;;;;9.65;100.00;92780.09;5053650;28;20903;-76
2024/01/02 01:18:13;;;;;;;7.97;5.13;;;;;;;9.54;100.00;92764.44;5062231;28;20045;-76
2024/01/02 01:20:39;;;;;;;7.60;4.68;;;;;;;9.62;100.00;92773.63;5054064;28;20251;-76
2024/01/02 01:23:06;;;;;;;8.45;5.53;;;;;;;9.61;100.00;92777.19;5051154;28;20063;-75
2024/01/02 01:25:35;;;;;;;8.32;5.55;;;;;;;9.61;100.00;92770.28;5053491;28;20041;-76
2024/01/02 01:28:03;;;;;;;8.50;5.70;;;;;;;9.61;100.00;92772.84;5051699;28;20405;-76
2024/01/02 01:30:30;;;;;;;9.50;5.75;;;;;;;9.63;100.00;92767.53;5051676;28;20116;-75
2024/01/02 01:32:57;;;;;;;7.50;4.95;;;;;;;9.61;100.00;92765.16;5054917;28;20037;-77
2024/01/02 01:35:24;;;;;;;10.32;6.88;;;;;;;9.55;100.00;92755.78;5053477;28;20052;-77
2024/01/02 01:37:51;;;;;;;8.98;6.15;;;;;;;9.62;100.00;92768.50;5052405;28;20056;-76
2024/01/02 01:40:18;;;;;;;11.18;7.18;;;;;;;9.57;100.00;92761.44;5054305;28;20423;-76
2024/01/02 01:42:46;;;;;;;12.75;7.82;;;;;;;9.58;100.00;92764.81;5055023;28;20049;-76
2024/01/02 01:45:13;;;;;;;9.75;7.85;;;;;;;9.52;100.00;92758.75;5050605;28;20417;-76
2024/01/02 01:47:41;;;;;;;9.80;7.13;;;;;;;9.56;100.00;92764.22;5052846;28;20057;-76
2024/01/02 01:50:09;;;;;;;14.52;10.10;;;;;;;9.43;100.00;92748.00;5053522;28;20131;-77
2024/01/02 01:52:36;;;;;;;11.15;8.10;;;;;;;9.47;100.00;92754.28;5052736;28;20068;-76
2024/01/02 01:55:05;;;;;;;9.48;6.70;;;;;;;9.39;100.00;92751.22;5051658;28;20057;-76
2024/01/02 01:57:34;;;;;;;11.07;7.75;;;;;;;9.44;100.00;92770.06;5049245;28;20051;-76
2024/01/02 02:00:04;;;;;;;12.98;7.95;;;;;;;9.43;100.00;92762.59;5052772;28;20053;-76
2024/01/02 02:02:32;;;;;;;9.90;7.28;;;;;;;9.43;100.00;92760.00;5051709;28;20126;-76
2024/01/02 02:05:00;;;;;;;10.88;7.20;;;;;;;9.44;100.00;92757.25;5049450;28;20422;-75
2024/01/02 02:07:28;;;;;;;10.00;6.97;;;;;;;9.44;100.00;92751.34;5059033;28;20091;-75
2024/01/02 02:09:55;;;;;;;8.52;6.97;;;;;;;9.42;100.00;92751.56;5050525;28;20168;-75
2024/01/02 02:12:22;;;;;;;11.73;7.15;;;;;;;9.39;100.00;92753.78;5062726;28;20041;-75
2024/01/02 02:14:49;;;;;;;10.40;7.47;;;;;;;9.40;100.00;92745.84;5053044;28;20053;-75
2024/01/02 02:17:22;;;;;;;9.88;6.90;;;;;;;9.37;100.00;92748.84;5051307;28;20060;-75
2024/01/02 02:19:49;;;;;;;9.52;6.82;;;;;;;9.38;100.00;92747.06;5051514;28;20048;-75
2024/01/02 02:22:18;;;;;;;8.65;6.70;;;;;;;9.35;100.00;92741.38;5056622;28;20036;-75
2024/01/02 02:24:47;;;;;;;7.20;5.63;;;;;;;9.30;100.00;92732.75;5049959;28;20076;-75
2024/01/02 02:27:17;;;;;;;7.43;5.97;;;;;;;9.30;100.00;92736.09;5050676;28;20044;-75
2024/01/02 02:29:44;;;;;;;7.60;5.20;;;;;;;9.35;100.00;92743.13;5049247;28;20056;-75
2024/01/02 02:32:11;;;;;;;7.47;5.95;;;;;;;9.28;100.00;92739.88;5061435;28;20413;-76
2024/01/02 02:34:38;;;;;;;8.25;6.60;;;;;;;9.29;100.00;92738.88;5055343;28;20053;-75
2024/01/02 02:37:05;;;;;;;7.45;5.80;;;;;;;9.19;100.00;92732.47;5050092;28;20055;-75
2024/01/02 02:39:32;;;;;;;8.00;5.45;;;;;;;9.29;100.00;92744.00;5049669;28;20049;-76
2024/01/02 02:42:00;;;;;;;8.15;6.20;;;;;;;9.09;100.00;92715.00;5063402;28;20051;-77
2024/01/02 02:44:27;;;;;;;7.47;5.95;;;;;;;9.18;100.00;92741.16;5053366;28;20067;-75
2024/01/02 02:46:54;;;;;;;7.75;6.03;;;;;;;9.12;100.00;92734.28;5049889;28;20099;-75
2024/01/02 02:49:21;;;;;;;11.77;7.10;;;;;;;9.06;100.00;92728.25;5059869;28;20041;-76
2024/01/02 02:51:48;;;;;;;12.00;7.32;;;;;;;9.05;100.00;92729.25;5049693;28;20565;-76
2024/01/02 02:54:15;;;;;;;14.95;8.88;;;;;;;9.05;100.00;92731.03;5055349;28;20041;-76
2024/01/02 02:56:43;;;;;;;12.23;9.13;;;;;;;9.12;100.00;92747.09;5056763;28;20082;-76
2024/01/02 02:59:11;;;;;;;12.82;8.48;;;;;;;9.09;100.00;92738.06;5052316;28;20113;-76
2024/01/02 03:01:38;;;;;;;9.23;7.93;;;;;;;9.11;100.00;92732.72;5050238;28;20063;-76
2024/01/02 03:04:05;;;;;;;11.10;7.72;;;;;;;8.94;100.00;92704.34;5050734;28;20055;-76
2024/01/02 03:06:32;;;;;;;9.98;7.45;;;;;;;9.15;100.00;92731.31;5055603;28;20049;-76
2024/01/02 03:08:59;;;;;;;12.68;8.68;;;;;;;9.16;100.00;92732.13;5051792;28;20115;-76
2024/01/02 03:11:26;;;;;;;15.05;9.90;;;;;;;9.20;100.00;92730.69;5048815;28;20132;-75
2024/01/02 03:13:53;;;;;;;12.77;9.32;;;;;;;9.14;100.00;92726.41;5052686;28;20041;-75
2024/01/02 03:16:23;;;;;;;11.50;8.75;;;;;;;9.06;100.00;92724.91;5055374;28;20048;-76
2024/01/02 03:18:50;;;;;;;10.30;8.25;;;;;;;8.99;100.00;92719.06;5051386;28;20041;-76
2024/01/02 03:21:17;;;;;;;12.57;9.05;;;;;;;9.06;100.00;92730.03;5050913;28;20048;-76
2024/01/02 03:23:44;;;;;;;11.40;9.10;;;;;;;9.01;100.00;92724.75;5052811;28;20124;-76
2024/01/02 03:26:11;;;;;;;12.48;8.77;;;;;;;8.95;100.00;92722.03;5048183;28;20051;-76
2024/01/02 03:28:38;;;;;;;12.80;9.05;;;;;;;9.00;100.00;92729.09;5055984;28;20070;-75
2024/01/02 03:31:06;;;;;;;13.00;9.48;;;;;;;9.04;100.00;92719.22;5050658;28;20067;-75
2024/01/02 03:33:34;;;;;;;14.07;11.27;;;;;;;8.93;100.00;92702.75;5052185;28;20052;-76
2024/01/02 03:36:01;;;;;;;12.10;10.25;;;;;;;8.93;100.00;92703.53;5050075;28;20045;-76
2024/01/02 03:38:28;;;;;;;12.32;10.27;;;;;;;8.99;100.00;92716.50;5048379;28;20525;-76
2024/01/02 03:40:55;;;;;;;16.65;11.95;;;;;;;8.98;100.00;92720.81;5053984;28;20055;-76
2024/01/02 03:43:21;;;;;;;14.20;12.07;;;;;;;8.93;100.00;92715.56;5048662;28;20064;-76
2024/01/02 03:45:48;;;;;;;16.75;12.55;;;;;;;8.91;100.00;92718.34;5059146;28;20045;-76
2024/01/02 03:48:16;;;;;;;22.27;16.02;;;;;;;8.77;100.00;92699.75;5050745;28;20041;-76
2024/01/02 03:50:44;;;;;;;41.28;28.00;;;;;;;8.76;100.00;92705.88;5054436;28;20048;-75
2024/01/02 03:53:11;;;;;;;49.47;30.55;;;;;;;8.85;100.00;92723.53;5053497;28;20059;-75
2024/01/02 03:55:38;;;;;;;31.77;23.15;;;;;;;8.85;100.00;92718.41;5054947;28;20059;-75
2024/01/02 03:58:05;;;;;;;19.73;14.77;;;;;;;8.71;100.00;92723.66;5048341;28;20135;-75
2024/01/02 04:00:33;;;;;;;19.40;15.32;;;;;;;8.69;100.00;92715.38;5061171;28;20070;-75
2024/01/02 04:03:00;;;;;;;16.77;13.77;;;;;;;8.72;100.00;92719.28;5048407;28;20052;-76
2024/01/02 04:05:27;;;;;;;15.50;12.70;;;;;;;8.70;100.00;92719.50;5049093;28;20045;-76
2024/01/02 04:07:55;;;;;;;15.02;10.98;;;;;;;8.67;100.00;92700.22;5053200;28;20060;-76
2024/01/02 04:10:22;;;;;;;13.48;10.77;;;;;;;8.77;100.00;92711.75;5047181;28;20052;-76
2024/01/02 04:12:52;;;;;;;22.25;17.75;;;;;;;8.77;100.00;92716.88;5057504;28;20087;-76
2024/01/02 04:15:18;;;;;;;23.58;18.58;;;;;;;8.80;100.00;92719.03;5051295;28;20098;-76
2024/01/02 04:17:45;;;;;;;42.80;28.00;;;;;;;8.79;100.00;92718.25;5047751;28;20051;-75
2024/01/02 04:20:12;;;;;;;42.25;26.50;;;;;;;8.74;100.00;92712.97;5052881;28;20565;-75
2024/01/02 04:22:39;;;;;;;18.10;11.45;;;;;;;8.78;100.00;92706.44;5053919;28;20048;-76
2024/01/02 04:25:09;;;;;;;14.27;9.30;;;;;;;8.68;100.00;92704.38;5050044;28;20063;-75
2024/01/02 04:27:36;;;;;;;20.08;13.75;;;;;;;8.70;100.00;92714.38;5050108;28;20052;-75
2024/01/02 04:30:04;;;;;;;22.30;14.65;;;;;;;8.75;100.00;92719.66;5051262;28;20053;-75
2024/01/02 04:32:31;;;;;;;15.18;10.77;;;;;;;8.74;100.00;92723.22;5045384;28;20072;-75
2024/01/02 04:34:57;;;;;;;13.60;9.85;;;;;;;8.79;100.00;92733.59;5062431;28;20036;-75
2024/01/02 04:37:24;;;;;;;12.48;10.25;;;;;;;8.55;100.00;92728.28;5058212;28;20059;-75
2024/01/02 04:39:51;;;;;;;10.02;7.85;;;;;;;8.33;100.00;92722.69;5051604;28;20048;-75
2024/01/02 04:42:20;;;;;;;15.45;13.85;;;;;;;8.28;100.00;92730.22;5054536;28;20130;-74
2024/01/02 04:44:46;;;;;;;13.98;11.68;;;;;;;8.34;100.00;92733.72;5057649;28;20048;-75
2024/01/02 04:47:13;;;;;;;14.55;12.18;;;;;;;8.41;100.00;92737.03;5055236;28;20055;-75
2024/01/02 04:49:40;;;;;;;10.43;9.30;;;;;;;8.38;100.00;92735.66;5051431;28;20049;-76
2024/01/02 04:52:07;;;;;;;12.13;10.82;;;;;;;8.26;100.00;92730.44;5061530;28;20048;-76
2024/01/02 04:54:34;;;;;;;16.50;12.55;;;;;;;8.13;100.00;92733.84;5050536;28;20045;-75
2024/01/02 04:57:01;;;;;;;15.60;12.07;;;;;;;8.13;100.00;92728.75;5055281;28;20054;-76
2024/01/02 04:59:29;;;;;;;14.93;11.38;;;;;;;7.96;100.00;92728.44;5055387;28;20168;-76
2024/01/02 05:01:56;;;;;;;12.23;9.30;;;;;;;7.71;100.00;92728.34;5057430;28;20074;-76
2024/01/02 05:04:23;;;;;;;11.82;8.68;;;;;;;7.59;100.00;92733.34;5048082;28;20047;-76
2024/01/02 05:06:50;;;;;;;13.20;9.00;;;;;;;7.75;100.00;92732.09;5059444;28;20053;-76
2024/01/02 05:09:17;;;;;;;11.93;9.63;;;;;;;7.75;100.00;92739.75;5057505;28;20090;-76
2024/01/02 05:11:45;;;;;;;12.27;8.90;;;;;;;7.74;100.00;92733.06;5049626;28;20045;-76
2024/01/02 05:14:12;;;;;;;12.27;8.32;;;;;;;7.50;100.00;92732.75;5052711;28;20423;-76
2024/01/02 05:16:40;;;;;;;11.65;8.00;;;;;;;7.51;100.00;92738.66;5057083;28;20044;-75
2024/01/02 05:19:07;;;;;;;11.30;7.78;;;;;;;7.51;100.00;92731.00;5062556;28;20537;-75
2024/01/02 05:21:34;;;;;;;12.80;8.73;;;;;;;7.52;100.00;92747.91;5051544;28;20045;-76
2024/01/02 05:24:01;;;;;;;13.35;8.13;;;;;;;7.47;100.00;92748.50;5061366;28;20099;-76
2024/01/02 05:26:28;;;;;;;12.68;9.57;;;;;;;7.55;100.00;92755.16;5062062;28;20505;-76
2024/01/02 05:28:55;;;;;;;13.38;8.57;;;;;;;7.44;100.00;92752.25;5056470;28;20057;-76
2024/01/02 05:31:22;;;;;;;12.40;8.57;;;;;;;7.36;100.00;92755.00;5058705;28;20059;-76
2024/01/02 05:33:50;;;;;;;18.70;10.95;;;;;;;7.57;100.00;92751.44;5053900;28;20127;-76
2024/01/02 05:36:17;;;;;;;16.77;10.00;;;;;;;7.61;100.00;92756.91;5052125;28;20426;-76
2024/01/02 05:38:44;;;;;;;17.45;10.38;;;;;;;7.73;100.00;92764.75;5053343;28;20057;-75
2024/01/02 05:41:11;;;;;;;13.85;9.18;;;;;;;7.78;100.00;92764.91;5053067;28;20044;-75
2024/01/02 05:43:38;;;;;;;11.90;6.38;;;;;;;7.58;100.00;92772.63;5053461;28;20502;-75
2024/01/02 05:46:05;;;;;;;12.85;6.30;;;;;;;7.59;100.00;92780.13;5054147;28;20037;-75
2024/01/02 05:48:32;;;;;;;23.52;11.48;;;;;;;7.65;100.00;92770.88;5050542;28;20049;-75
2024/01/02 05:51:00;;;;;;;12.98;5.90;;;;;;;7.58;100.00;92786.22;5055690;28;20793;-75
2024/01/02 05:53:27;;;;;;;11.63;5.90;;;;;;;7.68;100.00;92780.69;5053623;28;20053;-75
2024/01/02 05:55:54;;;;;;;12.60;6.60;;;;;;;7.61;100.00;92785.81;5050939;28;20062;-75
2024/01/02 05:58:21;;;;;;;10.90;5.07;;;;;;;7.65;100.00;92796.44;5049030;28;20078;-75
2024/01/02 06:00:48;;;;;;;12.43;5.60;;;;;;;7.60;100.00;92796.25;5056687;28;20049;-75
2024/01/02 06:03:15;;;;;;;7.85;4.53;;;;;;;7.47;100.00;92802.97;5050642;28;20045;-75
2024/01/02 06:05:42;;;;;;;10.32;5.68;;;;;;;7.41;100.00;92808.84;5049013;28;20079;-75
2024/01/02 06:08:10;;;;;;;11.10;5.25;;;;;;;7.39;100.00;92808.28;5055764;28;20075;-75
2024/01/02 06:10:38;;;;;;;6.32;3.25;;;;;;;7.11;100.00;92819.53;5059498;28;20048;-75
2024/01/02 06:13:07;;;;;;;6.43;3.92;;;;;;;6.91;100.00;92812.63;5050736;28;20052;-76
2024/01/02 06:15:34;;;;;;;8.70;3.83;;;;;;;7.00;100.00;92825.22;5057437;28;20491;-75
2024/01/02 06:18:01;;;;;;;5.68;3.50;;;;;;;7.10;100.00;92835.84;5053612;28;20049;-75
2024/01/02 06:20:28;;;;;;;5.57;3.55;;;;;;;6.81;100.00;92827.59;5055071;28;20055;-75
2024/01/02 06:22:55;;;;;;;5.60;3.55;;;;;;;6.87;100.00;92839.56;5057765;28;20051;-75
2024/01/02 06:25:23;;;;;;;4.95;2.65;;;;;;;6.91;100.00;92834.84;5052178;28;20052;-75
2024/01/02 06:27:50;;;;;;;4.40;1.80;;;;;;;6.38;100.00;92856.75;5058462;28;20048;-74
2024/01/02 06:30:18;;;;;;;8.95;5.35;;;;;;;6.72;100.00;92849.97;5051222;28;20060;-75
2024/01/02 06:32:45;;;;;;;4.50;3.15;;;;;;;6.88;100.00;92860.75;5049126;28;20053;-75
2024/01/02 06:35:13;;;;;;;3.10;2.42;;;;;;;6.81;100.00;92860.78;5054226;28;20045;-75
2024/01/02 06:37:40;;;;;;;6.68;3.42;;;;;;;6.55;100.00;92864.84;5049366;28;20053;-75
2024/01/02 06:40:09;;;;;;;15.70;7.80;;;;;;;6.89;100.00;92872.56;5053641;28;21553;-75
2024/01/02 06:42:37;;;;;;;12.68;6.88;;;;;;;7.02;100.00;92880.22;5059128;28;20051;-76
2024/01/02 06:45:07;;;;;;;8.43;2.72;;;;;;;6.72;100.00;92895.09;5050436;28;20063;-75
2024/01/02 06:47:34;;;;;;;4.88;2.38;;;;;;;6.52;100.00;92886.44;5051636;28;20593;-75
2024/01/02 06:50:02;;;;;;;7.15;3.95;;;;;;;6.73;100.00;92897.47;5053743;28;20057;-75
2024/01/02 06:52:29;;;;;;;4.13;2.83;;;;;;;6.48;100.00;92881.91;5051040;28;20044;-75
2024/01/02 06:54:56;;;;;;;8.73;5.38;;;;;;;6.54;100.00;92855.63;5059176;28;20426;-75
2024/01/02 06:57:23;;;;;;;9.23;7.90;;;;;;;6.67;100.00;92855.63;5054253;28;20059;-75
2024/01/02 06:59:51;;;;;;;7.95;6.10;;;;;;;6.61;100.00;92870.94;5055396;28;20063;-75
2024/01/02 07:02:18;;;;;;;6.90;5.45;;;;;;;6.76;100.00;92902.19;5050999;28;20520;-75
2024/01/02 07:04:45;;;;;;;7.50;5.68;;;;;;;6.91;100.00;92894.34;5054085;28;20044;-76
2024/01/02 07:07:12;;;;;;;8.95;6.63;;;;;;;6.91;100.00;92884.13;5052161;28;20057;-75
2024/01/02 07:09:39;;;;;;;10.65;8.23;;;;;;;7.06;100.00;92888.28;5056423;28;20051;-76
2024/01/02 07:12:06;;;;;;;11.13;8.77;;;;;;;7.28;100.00;92909.31;5057103;28;20048;-76
2024/01/02 07:14:34;;;;;;;6.05;5.45;;;;;;;7.30;100.00;92906.56;5048935;28;20043;-76
2024/01/02 07:17:02;;;;;;;13.98;10.95;;;;;;;7.33;100.00;92906.16;5052323;28;20066;-75
2024/01/02 07:19:29;;;;;;;10.85;8.18;;;;;;;7.42;100.00;92915.22;5054150;28;20041;-75
2024/01/02 07:21:56;;;;;;;11.05;8.02;;;;;;;7.44;100.00;92910.69;5054155;28;20045;-75
2024/01/02 07:24:23;;;;;;;10.98;8.00;;;;;;;7.48;100.00;92914.44;5056205;28;20055;-75
2024/01/02 07:26:50;;;;;;;9.52;5.82;;;;;;;7.49;100.00;92902.41;5048923;28;20084;-75
2024/01/02 07:29:16;;;;;;;9.95;6.07;;;;;;;7.42;100.00;92889.66;5050375;28;20045;-74
2024/01/02 07:31:43;;;;;;;10.27;6.15;;;;;;;7.61;100.00;92917.94;5059811;28;20045;-74
2024/01/02 07:34:13;;;;;;;7.53;5.15;;;;;;;7.64;100.00;92917.53;5059724;28;20448;-74
2024/01/02 07:36:40;;;;;;;8.70;6.10;;;;;;;7.68;100.00;92923.06;5050355;28;20744;-74
2024/01/02 07:39:07;;;;;;;9.73;6.75;;;;;;;7.68;100.00;92925.63;5048510;28;20536;-73
2024/01/02 07:41:34;;;;;;;9.98;7.20;;;;;;;7.70;100.00;92932.13;5061142;28;20040;-73
2024/01/02 07:44:03;;;;;;;8.80;6.90;;;;;;;7.48;100.00;92900.84;5056375;28;20045;-73
2024/01/02 07:46:30;;;;;;;9.48;6.38;;;;;;;7.72;100.00;92935.25;5054216;28;20057;-74
2024/01/02 07:48:57;;;;;;;12.25;7.25;;;;;;;7.74;100.00;92928.16;5054262;28;20048;-73
2024/01/02 07:51:25;;;;;;;9.68;6.15;;;;;;;7.76;100.00;92938.19;5052015;28;20037;-73
2024/01/02 07:53:52;;;;;;;8.82;5.32;;;;;;;7.65;100.00;92924.25;5059266;28;20041;-73
2024/01/02 07:56:20;;;;;;;7.47;5.55;;;;;;;7.73;100.00;92939.38;5056662;28;20529;-73
2024/01/02 07:58:47;;;;;;;10.60;5.95;;;;;;;7.76;100.00;92943.31;5052184;28;20114;-73
2024/01/02 08:01:17;;;;;;;16.52;13.80;;;;;;;7.79;100.00;92944.69;5049804;28;20589;-73
2024/01/02 08:03:43;;;;;;;7.38;5.45;;;;;;;7.77;100.00;92949.22;5049105;28;20053;-73
2024/01/02 08:06:10;;;;;;;10.55;8.07;;;;;;;7.77;100.00;92942.31;5048819;28;20071;-73
2024/01/02 08:08:39;;;;;;;12.07;8.52;;;;;;;7.68;100.00;92935.84;5049507;28;20040;-73
2024/01/02 08:11:08;;;;;;;13.23;9.88;;;;;;;7.83;100.00;92953.53;5048963;28;20049;-73
2024/01/02 08:13:35;;;;;;;11.40;8.05;;;;;;;7.79;100.00;92950.59;5050230;28;20138;-73
2024/01/02 08:16:03;;;;;;;11.40;8.57;;;;;;;7.81;100.00;92947.81;5050596;28;20502;-73
2024/01/02 08:18:30;;;;;;;12.45;8.20;;;;;;;7.82;100.00;92947.63;5053551;28;20448;-73
2024/01/02 08:20:57;;;;;;;10.32;7.38;;;;;;;7.82;100.00;92957.84;5051733;28;20070;-73
2024/01/02 08:23:25;;;;;;;10.82;7.22;;;;;;;7.87;100.00;92967.50;5051979;28;20090;-73
2024/01/02 08:25:53;;;;;;;9.45;6.55;;;;;;;7.87;100.00;92960.59;5048318;28;20142;-73
2024/01/02 08:28:20;;;;;;;8.65;5.90;;;;;;;7.86;100.00;92958.22;5052181;28;20053;-73
2024/01/02 08:30:47;;;;;;;9.10;5.18;;;;;;;7.84;100.00;92958.44;5050067;28;20048;-73
2024/01/02 08:33:14;;;;;;;11.63;5.32;;;;;;;7.79;100.00;92942.91;5049048;28;20058;-73
2024/01/02 08:35:41;;;;;;;19.35;15.07;;;;;;;7.93;100.00;92958.22;5049848;28;20459;-73
2024/01/02 08:38:08;;;;;;;45.28;38.20;;;;;;;7.92;100.00;92947.19;5051403;28;20143;-73
2024/01/02 08:40:35;;;;;;;38.05;27.58;;;;;;;7.80;100.00;92943.69;5057954;28;20044;-73
2024/01/02 08:43:04;;;;;;;18.65;13.10;;;;;;;7.88;100.00;92949.38;5052861;28;20057;-73
2024/01/02 08:45:31;;;;;;;35.22;23.48;;;;;;;7.87;100.00;92944.47;5049789;28;20052;-73
2024/01/02 08:47:58;;;;;;;39.80;28.67;;;;;;;7.92;100.00;92957.44;5052270;28;20377;-73
2024/01/02 08:50:25;;;;;;;17.42;12.52;;;;;;;8.00;100.00;92957.22;5060249;28;20585;-73
2024/01/02 08:52:52;;;;;;;15.35;9.05;;;;;;;7.89;100.00;92939.94;5058363;28;20056;-73
2024/01/02 08:55:19;;;;;;;19.55;13.63;;;;;;;8.06;100.00;92949.75;5057005;28;20056;-73
2024/01/02 08:57:46;;;;;;;19.30;12.15;;;;;;;8.11;100.00;92957.63;5064466;28;20396;-73
2024/01/02 09:00:15;;;;;;;32.30;23.35;;;;;;;8.19;100.00;92952.28;5061400;28;20442;-73
2024/01/02 09:02:42;;;;;;;36.42;26.65;;;;;;;8.25;100.00;92948.13;5057948;28;20044;-73
2024/01/02 09:05:09;;;;;;;28.27;20.02;;;;;;;8.31;100.00;92952.44;5059340;28;20055;-73
2024/01/02 09:07:37;;;;;;;32.67;24.75;;;;;;;8.34;100.00;92954.59;5053218;28;20069;-73
2024/01/02 09:10:05;;;;;;;18.42;10.73;;;;;;;8.26;100.00;92953.06;5051556;28;20049;-73
2024/01/02 09:12:32;;;;;;;15.13;10.98;;;;;;;8.32;100.00;92953.25;5050771;28;20401;-73
2024/01/02 09:14:59;;;;;;;16.88;10.05;;;;;;;8.26;100.00;92949.69;5052921;28;20048;-73
2024/01/02 09:17:27;;;;;;;15.25;7.13;;;;;;;8.31;100.00;92946.53;5052371;28;20044;-73
2024/01/02 09:19:54;;;;;;;21.08;12.85;;;;;;;8.27;100.00;92941.81;5053237;28;20132;-73
2024/01/02 09:22:23;;;;;;;17.77;11.57;;;;;;;8.30;100.00;92945.75;5051665;28;20529;-73
2024/01/02 09:24:52;;;;;;;69.70;39.25;;;;;;;8.34;100.00;92938.47;5053047;28;20049;-72
2024/01/02 09:27:19;;;;;;;116.45;57.85;;;;;;;8.34;100.00;92920.53;5053133;28;20526;-73
2024/01/02 09:29:46;;;;;;;52.10;29.30;;;;;;;8.38;100.00;92926.84;5059313;28;20495;-73
2024/01/02 09:32:16;;;;;;;72.20;37.17;;;;;;;8.43;100.00;92927.00;5059396;28;20045;-73
2024/01/02 09:34:44;;;;;;;57.42;29.30;;;;;;;8.28;100.00;92897.34;5054574;28;20062;-73
2024/01/02 09:37:12;;;;;;;71.88;34.10;;;;;;;8.48;100.00;92927.16;5051285;28;20136;-73
2024/01/02 09:39:39;;;;;;;100.93;48.85;;;;;;;8.52;100.00;92933.47;5058435;28;20491;-73
2024/01/02 09:42:18;;;;;;;158.30;72.55;;;;;;;8.60;100.00;92931.69;5053660;28;20056;-73
2024/01/02 09:44:57;;;;;;;242.00;106.65;;;;;;;8.60;100.00;92918.91;5058143;28;20564;-73
2024/01/02 09:47:59;;;;;;;85.93;42.10;;;;;;;8.66;100.00;92923.19;5059581;28;20044;-73
2024/01/02 09:50:34;;;;;;;216.45;95.57;;;;;;;8.65;100.00;92916.50;5051976;28;20040;-73
2024/01/02 09:53:33;;;;;;;72.53;36.00;;;;;;;8.72;100.00;92917.25;5051047;28;20048;-73
2024/01/02 09:56:07;;;;;;;152.02;78.43;;;;;;;8.73;100.00;92911.16;5053774;28;20049;-73
2024/01/02 09:58:42;;;;;;;30.10;16.73;;;;;;;8.52;100.00;92884.06;5049133;28;20061;-73
2024/01/02 10:01:20;;;;;;;32.92;17.27;;;;;;;8.75;100.00;92905.81;5050815;28;20053;-73
2024/01/02 10:04:13;;;;;;;253.25;145.73;;;;;;;8.84;100.00;92904.56;5051238;28;20041;-72
2024/01/02 10:07:01;;;;;;;50.83;29.45;;;;;;;8.89;100.00;92891.16;5041909;28;20493;-73
2024/01/02 10:09:53;;;;;;;25.85;14.43;;;;;;;8.90;100.00;92903.78;5049799;28;20041;-73
2024/01/02 10:12:33;;;;;;;22.80;15.85;;;;;;;8.97;100.00;92892.69;5053177;28;20340;-73
2024/01/02 10:15:13;;;;;;;16.45;9.48;;;;;;;9.01;100.00;92884.38;5057362;28;20056;-73
2024/01/02 10:17:49;;;;;;;19.08;8.98;;;;;;;9.16;100.00;92894.31;5048944;28;20063;-73
2024/01/02 10:20:22;;;;;;;29.70;12.40;;;;;;;9.21;100.00;92886.00;5060540;28;20041;-73
2024/01/02 10:23:04;;;;;;;20.17;11.50;;;;;;;9.28;100.00;92891.06;5053548;28;20597;-73
2024/01/02 10:25:31;;;;;;;24.25;12.02;;;;;;;9.23;100.00;92869.41;5057960;28;20044;-73
2024/01/02 10:28:08;;;;;;;14.95;7.80;;;;;;;9.46;100.00;92878.34;5057144;28;20068;-73
2024/01/02 10:30:40;;;;;;;15.48;8.77;;;;;;;9.49;100.00;92874.53;5052872;28;20045;-73
2024/01/02 10:33:16;;;;;;;16.83;8.85;;;;;;;9.61;100.00;92877.19;5048638;28;20041;-73
2024/01/02 10:35:45;;;;;;;12.05;6.40;;;;;;;9.75;100.00;92883.78;5049953;28;20049;-73
2024/01/02 10:38:20;;;;;;;12.73;6.10;;;;;;;9.86;100.00;92891.78;5054664;28;20454;-73
2024/01/02 10:40:51;;;;;;;10.37;7.23;;;;;;;9.91;100.00;92891.94;5052124;28;20049;-73
2024/01/02 10:43:28;;;;;;;14.02;7.97;;;;;;;9.93;100.00;92877.09;5049473;28;20071;-73
2024/01/02 10:45:59;;;;;;;13.15;6.57;;;;;;;10.09;100.00;92888.56;5054340;28;20072;-73
2024/01/02 10:48:44;;;;;;;18.25;8.98;;;;;;;10.13;100.00;92879.44;5052913;28;20051;-73
2024/01/02 10:51:21;;;;;;;11.13;6.80;;;;;;;10.20;100.00;92888.84;5050150;28;20049;-73
2024/01/02 10:53:58;;;;;;;7.90;4.15;;;;;;;10.12;96.66;92867.59;5049719;28;20053;-73
2024/01/02 10:56:37;;;;;;;9.75;4.53;;;;;;;10.30;96.48;92881.44;5048289;28;20044;-73
2024/01/02 10:59:13;;;;;;;6.05;2.75;;;;;;;10.33;94.78;92873.31;5059971;28;20506;-73
2024/01/02 11:01:46;;;;;;;9.52;4.80;;;;;;;10.38;95.55;92885.47;5050210;28;20316;-73
2024/01/02 11:04:21;;;;;;;9.90;4.72;;;;;;;10.50;97.66;92877.84;5058536;28;20040;-73
2024/01/02 11:06:55;;;;;;;8.88;4.43;;;;;;;10.52;98.79;92866.34;5048904;28;20045;-73
2024/01/02 11:09:31;;;;;;;8.50;5.57;;;;;;;10.60;97.68;92872.97;5049074;28;20473;-73
2024/01/02 11:11:59;;;;;;;12.85;5.28;;;;;;;10.52;98.06;92861.22;5049566;28;20410;-73
2024/01/02 11:14:29;;;;;;;11.68;5.40;;;;;;;10.72;97.46;92873.03;5051413;28;20532;-73
2024/01/02 11:16:58;;;;;;;7.05;3.80;;;;;;;10.77;96.46;92868.03;5050780;28;20045;-73
2024/01/02 11:19:55;;;;;;;9.52;3.35;;;;;;;10.69;95.35;92856.28;5056982;28;20041;-73
2024/01/02 11:22:35;;;;;;;9.95;5.47;;;;;;;10.89;95.55;92869.84;5049799;28;20498;-73
2024/01/02 11:25:09;;;;;;;13.85;7.32;;;;;;;10.91;92.15;92866.06;5051040;28;20409;-73
2024/01/02 11:27:39;;;;;;;10.65;4.00;;;;;;;10.92;89.69;92867.59;5050356;28;20071;-73
2024/01/02 11:30:11;;;;;;;6.68;3.35;;;;;;;10.81;86.92;92863.22;5048051;28;20135;-73
2024/01/02 11:32:53;;;;;;;8.65;4.30;;;;;;;10.79;89.77;92850.59;5052052;28;20048;-73